Time;durP1;ratioP1;P1;durP2;ratioP2;P2;SDS_P1;SDS_P2;PMS_P1;PMS_P2;Temp;Humidity;BMP_temperature;BMP_pressure;BME280_temperature;BME280_humidity;BME280_pressure;Samples;Min_cycle;Max_cycle;Signal;HPM_P1;HPM_P2
2022/02/25 00:02:02;;;;;;;19.43;18.53;;;6.70;69.10;;;;;;5034199;28;20461;-80
2022/02/25 00:04:28;;;;;;;20.60;19.23;;;6.70;69.10;;;;;;5003152;28;21718;-80
2022/02/25 00:06:54;;;;;;;19.17;18.27;;;6.70;69.20;;;;;;5004328;28;20030;-80
2022/02/25 00:09:20;;;;;;;19.13;18.23;;;6.70;69.10;;;;;;5004226;28;20030;-80
2022/02/25 00:11:47;;;;;;;18.33;17.52;;;6.70;69.20;;;;;;5009380;28;20026;-80
2022/02/25 00:14:13;;;;;;;19.03;18.13;;;6.60;69.10;;;;;;5009897;28;20096;-80
2022/02/25 00:16:39;;;;;;;19.20;18.20;;;6.60;69.10;;;;;;5013831;28;20041;-80
2022/02/25 00:19:05;;;;;;;19.73;18.83;;;6.60;69.10;;;;;;4979726;28;20491;-80
2022/02/25 00:21:31;;;;;;;18.70;17.80;;;6.60;69.10;;;;;;5027049;28;20037;-80
2022/02/25 00:23:57;;;;;;;18.80;17.90;;;6.60;69.20;;;;;;5009224;28;20050;-80
2022/02/25 00:26:23;;;;;;;19.67;18.60;;;6.60;69.20;;;;;;5012865;28;20030;-80
2022/02/25 00:28:50;;;;;;;18.63;17.75;;;6.60;69.20;;;;;;5009666;28;20037;-80
2022/02/25 00:31:16;;;;;;;19.80;18.80;;;6.60;69.10;;;;;;5009276;28;20049;-80
2022/02/25 00:33:42;;;;;;;18.70;17.80;;;6.60;69.20;;;;;;5012008;28;20072;-80
2022/02/25 00:36:08;;;;;;;18.37;17.57;;;6.60;69.10;;;;;;5042857;28;20030;-80
2022/02/25 00:38:34;;;;;;;19.43;18.53;;;6.60;69.10;;;;;;5010073;28;20060;-80
2022/02/25 00:41:00;;;;;;;18.40;17.57;;;6.50;69.20;;;;;;5012042;28;20029;-80
2022/02/25 00:43:26;;;;;;;18.27;17.47;;;6.50;69.20;;;;;;5008928;28;20034;-80
2022/02/25 00:45:52;;;;;;;19.27;18.38;;;6.50;69.20;;;;;;5033510;28;20403;-80
2022/02/25 00:48:18;;;;;;;19.00;18.10;;;6.50;69.20;;;;;;5043782;28;20041;-80
2022/02/25 00:50:44;;;;;;;18.90;18.00;;;6.50;69.20;;;;;;5022792;28;20364;-80
2022/02/25 00:53:11;;;;;;;18.93;18.03;;;6.50;69.20;;;;;;5008101;28;20045;-80
2022/02/25 00:55:37;;;;;;;18.90;18.00;;;6.50;69.20;;;;;;4996756;28;20029;-80
2022/02/25 00:58:03;;;;;;;18.47;17.57;;;6.40;69.20;;;;;;5011724;28;20036;-80
2022/02/25 01:00:29;;;;;;;18.50;17.60;;;6.40;69.20;;;;;;5024988;28;20056;-80
2022/02/25 01:02:56;;;;;;;18.93;18.03;;;6.40;69.30;;;;;;5024448;28;20026;-80
2022/02/25 01:05:22;;;;;;;19.00;18.10;;;6.40;70.00;;;;;;5010955;28;20034;-80
2022/02/25 01:07:48;;;;;;;20.47;18.93;;;6.40;69.30;;;;;;5026191;28;20034;-80
2022/02/25 01:10:15;;;;;;;20.17;18.93;;;6.40;69.30;;;;;;5011575;28;20034;-80
2022/02/25 01:12:42;;;;;;;18.70;17.80;;;6.40;69.30;;;;;;5011431;28;20042;-80
2022/02/25 01:15:10;;;;;;;19.20;18.20;;;6.40;69.30;;;;;;5042954;28;20510;-80
2022/02/25 01:17:36;;;;;;;19.07;18.17;;;6.40;69.20;;;;;;5015469;28;20030;-80
2022/02/25 01:20:04;;;;;;;19.00;18.10;;;6.40;69.20;;;;;;4990302;28;20463;-80
2022/02/25 01:22:30;;;;;;;18.97;18.07;;;6.40;69.20;;;;;;5009334;28;20053;-80
2022/02/25 01:24:56;;;;;;;18.93;18.03;;;6.40;69.20;;;;;;5012239;28;20053;-80
2022/02/25 01:27:22;;;;;;;18.40;17.60;;;6.30;69.20;;;;;;5011465;28;20030;-80
2022/02/25 01:29:48;;;;;;;18.50;17.60;;;6.30;69.20;;;;;;5024036;28;20042;-80
2022/02/25 01:32:14;;;;;;;18.90;18.00;;;6.30;69.20;;;;;;5009188;28;20053;-80
2022/02/25 01:34:40;;;;;;;19.03;18.13;;;6.30;69.20;;;;;;5025054;28;20057;-80
2022/02/25 01:37:06;;;;;;;19.27;18.37;;;6.30;69.30;;;;;;5011072;28;20048;-80
2022/02/25 01:39:32;;;;;;;19.43;18.43;;;6.30;69.30;;;;;;4988781;28;20042;-80
2022/02/25 01:41:59;;;;;;;19.00;18.10;;;6.30;69.30;;;;;;5008816;28;20483;-80
2022/02/25 01:44:26;;;;;;;18.47;17.67;;;6.30;69.20;;;;;;5022082;28;20034;-80
2022/02/25 01:46:55;;;;;;;18.87;17.97;;;6.30;69.20;;;;;;5020829;28;20483;-80
2022/02/25 01:49:22;;;;;;;18.70;17.83;;;6.30;69.20;;;;;;5008963;28;20041;-80
2022/02/25 01:51:48;;;;;;;18.57;17.67;;;6.30;69.30;;;;;;5042816;28;20061;-80
2022/02/25 01:54:14;;;;;;;19.63;18.30;;;6.20;69.20;;;;;;5009695;28;20054;-80
2022/02/25 01:56:41;;;;;;;18.47;17.60;;;6.20;69.20;;;;;;4991196;28;20030;-80
2022/02/25 01:59:08;;;;;;;18.40;17.60;;;6.20;69.30;;;;;;4990915;28;20045;-80
2022/02/25 02:01:34;;;;;;;18.37;17.57;;;6.20;69.40;;;;;;5011624;28;20440;-80
2022/02/25 02:04:00;;;;;;;18.83;17.93;;;6.10;69.40;;;;;;5026092;28;20052;-80
2022/02/25 02:06:27;;;;;;;18.40;17.60;;;6.10;69.50;;;;;;5010637;28;20045;-80
2022/02/25 02:08:53;;;;;;;19.23;18.33;;;6.10;69.50;;;;;;5008845;28;20045;-80
2022/02/25 02:11:35;;;;;;;18.80;17.90;;;6.10;69.50;;;;;;5006454;28;20042;-80
2022/02/25 02:14:04;;;;;;;19.10;18.20;;;6.10;69.50;;;;;;5009587;28;20046;-80
2022/02/25 02:16:30;;;;;;;18.17;17.27;;;6.10;69.50;;;;;;4975420;28;20034;-80
2022/02/25 02:18:56;;;;;;;19.10;18.20;;;6.00;70.20;;;;;;5041129;28;20036;-80
2022/02/25 02:21:26;;;;;;;18.30;17.50;;;6.00;69.50;;;;;;5009323;28;20041;-80
2022/02/25 02:23:53;;;;;;;18.87;17.97;;;6.00;69.60;;;;;;5007890;28;20410;-80
2022/02/25 02:26:20;;;;;;;18.30;17.50;;;6.00;69.60;;;;;;5007311;28;20053;-80
2022/02/25 02:28:46;;;;;;;18.80;17.90;;;6.00;69.70;;;;;;5009983;28;20037;-80
2022/02/25 02:31:13;;;;;;;18.40;17.50;;;5.90;69.60;;;;;;5025151;28;20060;-80
2022/02/25 02:33:40;;;;;;;20.17;18.73;;;5.90;69.70;;;;;;5010746;28;20052;-80
2022/02/25 02:36:07;;;;;;;18.73;17.83;;;5.90;69.70;;;;;;5008152;28;20384;-80
2022/02/25 02:38:33;;;;;;;18.90;18.00;;;5.80;69.70;;;;;;5013810;28;20046;-80
2022/02/25 02:40:59;;;;;;;18.97;18.07;;;5.80;69.70;;;;;;5008650;28;20053;-80
2022/02/25 02:43:25;;;;;;;18.97;18.00;;;5.80;69.70;;;;;;5047434;28;20048;-80
2022/02/25 02:45:51;;;;;;;19.07;18.17;;;5.80;70.60;;;;;;5045371;28;20041;-80
2022/02/25 02:48:17;;;;;;;18.37;17.57;;;5.70;69.80;;;;;;5011362;28;20045;-80
2022/02/25 02:50:43;;;;;;;18.37;17.57;;;5.70;69.90;;;;;;5014435;28;20030;-80
2022/02/25 02:53:10;;;;;;;19.63;18.70;;;5.70;69.90;;;;;;5010001;28;20026;-80
2022/02/25 02:55:36;;;;;;;18.93;18.03;;;5.70;69.90;;;;;;5013760;28;20034;-80
2022/02/25 02:58:02;;;;;;;19.07;18.17;;;5.70;69.90;;;;;;5046666;28;20030;-80
2022/02/25 03:00:28;;;;;;;18.93;18.03;;;5.70;69.90;;;;;;5008498;28;20053;-80
2022/02/25 03:02:54;;;;;;;18.90;18.00;;;5.60;69.90;;;;;;5009068;28;20480;-80
2022/02/25 03:05:22;;;;;;;19.50;18.50;;;5.60;69.90;;;;;;5007584;28;20037;-80
2022/02/25 03:07:48;;;;;;;18.43;17.63;;;5.60;69.90;;;;;;5006891;28;20046;-80
2022/02/25 03:10:14;;;;;;;18.53;17.63;;;5.60;70.00;;;;;;5010819;28;20049;-80
2022/02/25 03:12:40;;;;;;;18.70;17.80;;;5.50;69.90;;;;;;4978825;28;20037;-80
2022/02/25 03:15:07;;;;;;;17.67;16.87;;;5.50;69.90;;;;;;4993365;28;20046;-81
2022/02/25 03:17:34;;;;;;;18.03;17.23;;;5.50;69.90;;;;;;5011101;28;20048;-80
2022/02/25 03:20:00;;;;;;;18.40;17.60;;;5.50;70.00;;;;;;4992533;28;20029;-80
2022/02/25 03:22:26;;;;;;;18.57;17.43;;;5.50;70.00;;;;;;5008444;28;20038;-81
2022/02/25 03:24:53;;;;;;;17.73;16.93;;;5.50;70.00;;;;;;5009087;28;20057;-80
2022/02/25 03:27:19;;;;;;;17.63;16.83;;;5.50;70.00;;;;;;4993529;28;20135;-80
2022/02/25 03:29:45;;;;;;;17.37;16.57;;;5.50;70.00;;;;;;5012544;28;20037;-80
2022/02/25 03:32:11;;;;;;;18.40;17.60;;;5.40;70.00;;;;;;5023368;28;20395;-80
2022/02/25 03:34:38;;;;;;;17.23;16.43;;;5.50;70.10;;;;;;5008470;28;20042;-80
2022/02/25 03:37:04;;;;;;;17.63;16.83;;;5.40;70.10;;;;;;4994592;28;20068;-80
2022/02/25 03:39:31;;;;;;;17.33;16.53;;;5.40;70.10;;;;;;4996910;28;20045;-80
2022/02/25 03:41:57;;;;;;;18.33;17.23;;;5.40;70.10;;;;;;5042472;28;20129;-80
2022/02/25 03:44:23;;;;;;;17.80;17.00;;;5.40;70.10;;;;;;5022263;28;20029;-80
2022/02/25 03:46:49;;;;;;;17.60;16.80;;;5.40;70.10;;;;;;5012400;28;20049;-80
2022/02/25 03:49:15;;;;;;;19.10;17.80;;;5.40;70.10;;;;;;5028699;28;20025;-80
2022/02/25 03:51:41;;;;;;;17.70;16.90;;;5.40;70.20;;;;;;5013100;28;20382;-80
2022/02/25 03:54:08;;;;;;;18.27;17.47;;;5.40;70.20;;;;;;4995148;28;20030;-81
2022/02/25 03:56:34;;;;;;;18.07;17.27;;;5.30;70.20;;;;;;5012949;28;20101;-81
2022/02/25 03:59:00;;;;;;;18.43;17.63;;;5.30;70.20;;;;;;5026206;28;20529;-78
2022/02/25 04:01:26;;;;;;;18.47;17.57;;;5.30;70.20;;;;;;5003586;28;20038;-78
2022/02/25 04:03:52;;;;;;;17.67;16.87;;;5.30;70.20;;;;;;5012896;28;20391;-78
2022/02/25 04:06:19;;;;;;;18.23;17.43;;;5.30;70.20;;;;;;5013477;28;20041;-78
2022/02/25 04:08:45;;;;;;;18.07;17.27;;;5.30;70.20;;;;;;4993500;28;20034;-78
2022/02/25 04:11:11;;;;;;;18.10;17.20;;;5.30;70.20;;;;;;5011515;28;20478;-78
2022/02/25 04:13:38;;;;;;;17.83;17.03;;;5.30;70.20;;;;;;4994939;28;20041;-78
2022/02/25 04:16:04;;;;;;;19.17;18.20;;;5.30;70.20;;;;;;5028576;28;20037;-77
2022/02/25 04:18:30;;;;;;;17.80;17.00;;;5.30;70.30;;;;;;5018477;28;20042;-78
2022/02/25 04:20:56;;;;;;;18.30;17.50;;;5.30;70.30;;;;;;5011477;28;20470;-78
2022/02/25 04:23:23;;;;;;;18.30;17.50;;;5.20;70.20;;;;;;4992653;28;20045;-78
2022/02/25 04:25:49;;;;;;;18.20;17.13;;;5.20;70.20;;;;;;5009726;28;20089;-77
2022/02/25 04:28:15;;;;;;;18.63;17.73;;;5.20;70.30;;;;;;5013207;28;20495;-78
2022/02/25 04:30:41;;;;;;;18.30;17.30;;;5.20;70.30;;;;;;5013525;28;20041;-78
2022/02/25 04:33:07;;;;;;;19.53;18.53;;;5.20;70.30;;;;;;5016311;28;20036;-79
2022/02/25 04:35:34;;;;;;;18.70;17.80;;;5.20;70.30;;;;;;5015917;28;20030;-80
2022/02/25 04:38:00;;;;;;;19.97;18.60;;;5.20;70.30;;;;;;4994081;28;20038;-79
2022/02/25 04:40:26;;;;;;;19.60;18.70;;;5.20;70.30;;;;;;4995243;28;20044;-79
2022/02/25 04:42:52;;;;;;;18.43;17.53;;;5.20;70.30;;;;;;4996038;28;20030;-79
2022/02/25 04:45:18;;;;;;;19.10;18.20;;;5.20;70.30;;;;;;5011805;28;20033;-80
2022/02/25 04:47:44;;;;;;;18.77;17.40;;;5.20;70.40;;;;;;5011903;28;20037;-79
2022/02/25 04:50:11;;;;;;;16.73;15.93;;;5.10;70.40;;;;;;5008196;28;20034;-79
2022/02/25 04:52:39;;;;;;;18.40;17.57;;;5.10;70.40;;;;;;5009279;28;20027;-79
2022/02/25 04:55:05;;;;;;;18.87;17.97;;;5.10;70.40;;;;;;5010579;28;20046;-79
2022/02/25 04:57:31;;;;;;;18.20;17.40;;;5.10;70.50;;;;;;5011889;28;20038;-79
2022/02/25 04:59:57;;;;;;;18.67;17.77;;;5.10;70.50;;;;;;5011421;28;20482;-80
2022/02/25 05:02:23;;;;;;;18.77;17.87;;;5.10;70.40;;;;;;5008518;28;20041;-80
2022/02/25 05:04:49;;;;;;;18.47;17.57;;;5.10;70.40;;;;;;5011894;28;20404;-80
2022/02/25 05:07:16;;;;;;;18.90;18.00;;;5.10;70.40;;;;;;5009450;28;20053;-79
2022/02/25 05:09:42;;;;;;;17.80;17.00;;;5.10;70.50;;;;;;5011397;28;20041;-80
2022/02/25 05:12:08;;;;;;;19.17;18.27;;;5.10;70.50;;;;;;5011727;28;20045;-80
2022/02/25 05:20:23;;;;;;;18.07;17.27;;;5.10;70.60;;;;;;5012304;28;20041;-80
2022/02/25 05:23:00;;;;;;;18.37;17.50;;;5.00;70.60;;;;;;5011490;28;20042;-79
2022/02/25 05:25:26;;;;;;;16.70;15.90;;;5.00;70.60;;;;;;5000378;28;20422;-79
2022/02/25 05:27:53;;;;;;;17.10;16.30;;;5.00;70.60;;;;;;4995373;28;20030;-80
2022/02/25 05:30:19;;;;;;;18.30;17.50;;;5.00;70.60;;;;;;5011327;28;20037;-80
2022/02/25 05:32:46;;;;;;;19.07;18.10;;;5.00;70.70;;;;;;5009118;28;20030;-80
2022/02/25 05:35:12;;;;;;;18.23;17.43;;;5.00;70.80;;;;;;5026081;28;20038;-79
2022/02/25 05:37:39;;;;;;;17.77;16.87;;;5.00;70.80;;;;;;5008341;28;20029;-79
2022/02/25 05:40:06;;;;;;;17.97;17.03;;;4.90;70.70;;;;;;5009267;28;20036;-80
2022/02/25 05:42:33;;;;;;;17.27;16.33;;;5.00;70.90;;;;;;4995397;28;20038;-80
2022/02/25 05:45:00;;;;;;;17.80;17.00;;;4.90;70.80;;;;;;5024752;28;20490;-80
2022/02/25 05:47:26;;;;;;;17.73;16.93;;;4.90;70.80;;;;;;4995025;28;20038;-80
2022/02/25 05:49:53;;;;;;;17.83;17.03;;;5.00;70.80;;;;;;5011021;28;20091;-80
2022/02/25 05:52:19;;;;;;;18.33;17.43;;;4.90;70.80;;;;;;5009306;28;20026;-79
2022/02/25 05:54:45;;;;;;;18.33;17.43;;;4.90;70.90;;;;;;5011416;28;20037;-79
2022/02/25 05:57:12;;;;;;;16.83;16.03;;;4.90;70.90;;;;;;5007947;28;20379;-79
2022/02/25 05:59:38;;;;;;;18.43;17.53;;;4.90;70.90;;;;;;4991717;28;20041;-80
2022/02/25 06:02:04;;;;;;;18.20;17.40;;;4.90;70.90;;;;;;5024582;28;20041;-80
2022/02/25 06:04:31;;;;;;;18.77;17.87;;;4.90;70.90;;;;;;5010125;28;20030;-80
2022/02/25 06:06:57;;;;;;;19.37;18.40;;;4.90;70.90;;;;;;5026485;28;20033;-80
2022/02/25 06:09:23;;;;;;;19.63;18.60;;;4.90;70.90;;;;;;5015750;28;20478;-79
2022/02/25 06:11:49;;;;;;;17.07;16.27;;;4.90;70.90;;;;;;5005719;28;20375;-79
2022/02/25 06:14:15;;;;;;;17.70;16.90;;;4.90;70.90;;;;;;5022883;28;20061;-79
2022/02/25 06:16:41;;;;;;;19.00;17.77;;;4.90;70.90;;;;;;5003332;28;20466;-79
2022/02/25 06:19:07;;;;;;;18.03;17.03;;;4.90;70.90;;;;;;5019464;28;20064;-79
2022/02/25 06:21:34;;;;;;;18.77;17.73;;;4.90;70.90;;;;;;4996919;28;20029;-80
2022/02/25 06:24:00;;;;;;;18.13;17.23;;;4.90;71.00;;;;;;4976887;28;20042;-79
2022/02/25 06:26:26;;;;;;;18.03;17.13;;;4.90;71.00;;;;;;5008037;28;20041;-79
2022/02/25 06:28:53;;;;;;;19.00;18.07;;;4.90;71.10;;;;;;5010029;28;20394;-80
2022/02/25 06:31:19;;;;;;;17.40;16.60;;;4.90;71.10;;;;;;5008925;28;20517;-80
2022/02/25 06:33:45;;;;;;;18.20;17.30;;;4.80;71.20;;;;;;5013327;28;20045;-80
2022/02/25 06:36:11;;;;;;;17.73;16.93;;;4.80;71.20;;;;;;5008987;28;20042;-81
2022/02/25 06:38:37;;;;;;;17.63;16.63;;;4.80;71.20;;;;;;5043720;28;20038;-80
2022/02/25 06:41:03;;;;;;;18.77;17.47;;;4.80;71.20;;;;;;4996327;28;20034;-80
2022/02/25 06:43:30;;;;;;;17.63;16.83;;;4.80;71.20;;;;;;5011036;28;20037;-79
2022/02/25 06:45:56;;;;;;;17.23;16.43;;;4.80;71.10;;;;;;5010298;28;20030;-80
2022/02/25 06:48:22;;;;;;;18.50;17.60;;;4.80;71.20;;;;;;5022456;28;20030;-80
2022/02/25 06:50:48;;;;;;;19.87;18.57;;;4.80;72.00;;;;;;5021196;28;20025;-80
2022/02/25 06:53:14;;;;;;;19.23;18.07;;;4.90;71.20;;;;;;5017664;28;20084;-80
2022/02/25 06:55:41;;;;;;;17.63;16.83;;;4.90;71.20;;;;;;5000249;28;20038;-80
2022/02/25 06:58:07;;;;;;;18.20;17.00;;;4.90;71.20;;;;;;5009126;28;20033;-80
2022/02/25 07:00:36;;;;;;;17.53;16.70;;;4.90;71.20;;;;;;5012342;28;20037;-80
2022/02/25 07:03:03;;;;;;;17.67;16.87;;;4.90;71.20;;;;;;5012363;28;20030;-80
2022/02/25 07:05:29;;;;;;;18.00;17.20;;;5.00;71.20;;;;;;4996625;28;20022;-81
2022/02/25 07:07:55;;;;;;;17.33;16.53;;;5.00;71.10;;;;;;5018617;28;20030;-81
2022/02/25 07:10:21;;;;;;;17.60;16.73;;;5.00;71.20;;;;;;5007951;28;20033;-80
2022/02/25 07:12:48;;;;;;;19.77;18.23;;;5.00;71.20;;;;;;4992373;28;20073;-80
2022/02/25 07:15:14;;;;;;;18.50;17.60;;;5.00;71.20;;;;;;5012840;28;20050;-80
2022/02/25 07:17:40;;;;;;;18.10;17.17;;;5.00;71.20;;;;;;5013828;28;20034;-80
2022/02/25 07:20:07;;;;;;;19.77;18.67;;;5.00;71.30;;;;;;5026366;28;20033;-79
2022/02/25 07:22:34;;;;;;;18.13;17.33;;;5.00;71.20;;;;;;5025510;28;20042;-81
2022/02/25 07:25:00;;;;;;;18.37;17.10;;;5.00;71.30;;;;;;4996384;28;20049;-82
2022/02/25 07:27:26;;;;;;;19.30;18.40;;;5.00;71.20;;;;;;4980222;28;20042;-87
2022/02/25 07:29:52;;;;;;;16.67;15.87;;;5.10;71.20;;;;;;5002120;28;20034;-84
2022/02/25 07:32:21;;;;;;;18.17;17.37;;;5.10;71.20;;;;;;5007146;28;20034;-84
2022/02/25 07:34:47;;;;;;;19.43;18.43;;;5.20;71.20;;;;;;5007813;28;20037;-86
2022/02/25 07:37:14;;;;;;;19.97;18.73;;;5.20;71.10;;;;;;5013670;28;20394;-83
2022/02/25 07:39:40;;;;;;;18.30;17.50;;;5.20;71.00;;;;;;5011844;28;20033;-81
2022/02/25 07:42:06;;;;;;;18.10;17.30;;;5.20;71.00;;;;;;5011311;28;20499;-82
2022/02/25 07:44:32;;;;;;;18.77;17.87;;;5.30;71.00;;;;;;5012928;28;20045;-81
2022/02/25 07:46:58;;;;;;;18.63;17.77;;;5.40;71.00;;;;;;5012584;28;20033;-81
2022/02/25 07:49:25;;;;;;;17.77;16.97;;;5.40;70.90;;;;;;5010928;28;20025;-81
2022/02/25 07:51:52;;;;;;;17.73;16.93;;;5.50;71.00;;;;;;5007151;28;20045;-81
2022/02/25 07:54:19;;;;;;;17.73;16.93;;;5.70;70.70;;;;;;5014776;28;20053;-82
2022/02/25 07:56:45;;;;;;;17.37;16.57;;;6.20;69.80;;;;;;5005421;28;20041;-80
2022/02/25 07:59:12;;;;;;;18.00;17.20;;;6.80;68.60;;;;;;5000867;28;20034;-80
2022/02/25 08:01:39;;;;;;;18.33;17.53;;;7.40;67.30;;;;;;5011687;28;20037;-80
2022/02/25 08:04:07;;;;;;;19.03;18.13;;;8.00;66.30;;;;;;5011524;28;20026;-81
2022/02/25 08:06:34;;;;;;;19.97;18.87;;;8.40;65.30;;;;;;5014084;28;20033;-81
2022/02/25 08:09:00;;;;;;;20.17;18.98;;;8.90;64.70;;;;;;5041127;28;20045;-80
2022/02/25 08:11:26;;;;;;;20.95;19.85;;;9.20;64.10;;;;;;5008042;28;20045;-80
2022/02/25 08:13:52;;;;;;;1999.90;999.90;;;9.50;63.70;;;;;;4995775;28;20070;-80
2022/02/25 08:16:18;;;;;;;1999.90;999.90;;;9.70;63.50;;;;;;5009883;28;20414;-80
2022/02/25 08:18:44;;;;;;;1999.90;999.90;;;9.90;63.30;;;;;;5010666;28;20026;-82
2022/02/25 08:21:11;;;;;;;1999.90;999.90;;;10.10;63.50;;;;;;5006982;28;20413;-83
2022/02/25 08:23:37;;;;;;;1999.90;999.90;;;10.30;63.10;;;;;;5012599;28;20042;-83
2022/02/25 08:26:03;;;;;;;1999.90;999.90;;;10.60;63.10;;;;;;5010590;28;20045;-80
2022/02/25 08:28:29;;;;;;;1999.90;999.90;;;10.80;62.90;;;;;;5018206;28;20029;-79
2022/02/25 08:30:55;;;;;;;1999.90;999.90;;;11.00;62.80;;;;;;5010940;28;20044;-80
2022/02/25 08:33:21;;;;;;;1999.90;999.90;;;11.20;62.50;;;;;;5008717;28;20057;-82
2022/02/25 08:35:47;;;;;;;1999.90;999.90;;;11.40;62.30;;;;;;5007933;28;20044;-82
2022/02/25 08:38:17;;;;;;;1999.90;999.90;;;11.50;62.20;;;;;;5012460;28;20057;-83
2022/02/25 08:40:43;;;;;;;1999.90;999.90;;;11.60;62.30;;;;;;5023892;28;20041;-83
2022/02/25 08:43:09;;;;;;;1999.90;999.90;;;11.70;62.20;;;;;;4995335;28;20100;-84
2022/02/25 08:45:35;;;;;;;1999.90;999.90;;;11.90;62.30;;;;;;5010402;28;20369;-82
2022/02/25 08:48:02;;;;;;;1999.90;999.90;;;12.00;62.10;;;;;;5010815;28;20048;-82
2022/02/25 08:50:28;;;;;;;1999.90;999.90;;;12.10;62.10;;;;;;5012582;28;20040;-80
2022/02/25 08:52:55;;;;;;;1999.90;999.90;;;12.20;62.30;;;;;;5011539;28;20390;-83
2022/02/25 08:55:21;;;;;;;1999.90;999.90;;;12.30;62.10;;;;;;5006552;28;20471;-83
2022/02/25 08:57:48;;;;;;;1999.90;999.90;;;12.50;61.90;;;;;;5003150;28;20068;-88
2022/02/25 09:00:16;;;;;;;1999.90;999.90;;;12.70;61.70;;;;;;5011244;28;20046;-92
2022/02/25 09:02:43;;;;;;;1999.90;999.90;;;12.80;61.50;;;;;;5047260;28;20407;-92
2022/02/25 09:05:09;;;;;;;1999.90;999.90;;;12.90;61.60;;;;;;4995353;28;20041;-89
2022/02/25 09:07:35;;;;;;;1999.90;999.90;;;13.00;61.80;;;;;;5007916;28;20033;-86
2022/02/25 09:10:02;;;;;;;1999.90;999.90;;;13.10;61.70;;;;;;5010580;28;20041;-85
2022/02/25 09:12:29;;;;;;;1999.90;999.90;;;13.20;61.60;;;;;;5005989;28;20021;-86
2022/02/25 09:14:55;;;;;;;1999.90;999.90;;;13.20;61.80;;;;;;5006479;28;20438;-84
2022/02/25 09:17:21;;;;;;;1999.90;999.90;;;13.20;61.80;;;;;;4992272;28;20044;-84
2022/02/25 09:19:47;;;;;;;1999.90;999.90;;;13.40;61.70;;;;;;4993652;28;20037;-84
2022/02/25 09:22:14;;;;;;;1999.90;999.90;;;13.60;61.70;;;;;;5009451;28;20034;-84
2022/02/25 09:24:40;;;;;;;1999.90;999.90;;;13.80;61.50;;;;;;5009572;28;20386;-84
2022/02/25 09:27:06;;;;;;;1999.90;999.90;;;13.80;61.30;;;;;;4993000;28;20045;-83
2022/02/25 09:29:32;;;;;;;1999.90;999.90;;;14.00;61.50;;;;;;5045256;28;20050;-88
2022/02/25 09:31:59;;;;;;;1999.90;999.90;;;14.10;61.40;;;;;;5011295;28;20042;-84
2022/02/25 09:34:25;;;;;;;1999.90;999.90;;;14.30;61.20;;;;;;5014883;28;20041;-84
2022/02/25 09:36:51;;;;;;;1999.90;999.90;;;14.20;61.10;;;;;;5014426;28;20041;-84
2022/02/25 09:39:19;;;;;;;1999.90;999.90;;;14.30;61.50;;;;;;5014822;28;20026;-84
2022/02/25 09:41:45;;;;;;;1999.90;999.90;;;14.30;61.60;;;;;;5014899;28;20471;-83
2022/02/25 09:44:12;;;;;;;1999.90;999.90;;;14.40;61.80;;;;;;5018982;28;20033;-83
2022/02/25 09:46:38;;;;;;;1999.90;999.90;;;14.50;61.60;;;;;;4994084;28;20044;-84
2022/02/25 09:49:04;;;;;;;1999.90;999.90;;;14.50;61.70;;;;;;5012150;28;20046;-83
2022/02/25 09:51:30;;;;;;;1999.90;999.90;;;14.50;61.80;;;;;;5017912;28;20407;-83
2022/02/25 09:53:56;;;;;;;1999.90;999.90;;;14.50;61.60;;;;;;5015260;28;20034;-85
2022/02/25 09:56:24;;;;;;;1999.90;999.90;;;14.50;62.70;;;;;;5018208;28;20469;-84
2022/02/25 09:58:51;;;;;;;1999.90;999.90;;;14.50;61.90;;;;;;5006287;28;20032;-88
2022/02/25 10:01:18;;;;;;;1999.90;999.90;;;14.50;61.70;;;;;;4995971;28;20042;-87
2022/02/25 10:03:51;;;;;;;1999.90;999.90;;;14.40;62.00;;;;;;5012569;28;20033;-83
2022/02/25 10:06:17;;;;;;;1999.90;999.90;;;14.10;62.30;;;;;;5010402;28;20030;-83
2022/02/25 10:08:43;;;;;;;1999.90;999.90;;;13.90;62.60;;;;;;5014344;28;20033;-83
2022/02/25 10:11:09;;;;;;;1999.90;999.90;;;13.80;63.00;;;;;;4992152;28;20402;-83
2022/02/25 10:13:35;;;;;;;1999.90;999.90;;;13.80;63.30;;;;;;4995643;28;20036;-83
2022/02/25 10:16:07;;;;;;;1999.90;999.90;;;13.80;63.10;;;;;;5012843;28;20045;-83
2022/02/25 10:18:34;;;;;;;1999.90;999.90;;;13.80;63.10;;;;;;5020712;28;20025;-83
2022/02/25 10:21:05;;;;;;;1999.90;999.90;;;13.80;63.00;;;;;;5003105;28;20041;-83
2022/02/25 10:23:33;;;;;;;1999.90;999.90;;;13.80;62.90;;;;;;4997273;28;20038;-83
2022/02/25 10:26:11;;;;;;;1999.90;999.90;;;13.80;62.80;;;;;;4996313;28;20486;-83
2022/02/25 10:28:39;;;;;;;1999.90;999.90;;;14.00;62.70;;;;;;5020478;28;20050;-84
2022/02/25 10:31:26;;;;;;;1999.90;999.90;;;14.10;62.50;;;;;;4999181;28;20041;-84
2022/02/25 10:34:00;;;;;;;1999.90;999.90;;;14.10;62.30;;;;;;5005733;28;20045;-83
2022/02/25 10:36:46;;;;;;;1999.90;999.90;;;14.20;62.40;;;;;;5011134;28;20057;-85
2022/02/25 10:39:20;;;;;;;1999.90;999.90;;;14.30;62.20;;;;;;4999422;28;20041;-82
2022/02/25 10:42:25;;;;;;;1999.90;999.90;;;14.20;62.00;;;;;;5014096;28;20038;-82
2022/02/25 10:44:57;;;;;;;1999.90;999.90;;;14.20;62.30;;;;;;4975868;28;20042;-82
2022/02/25 10:47:27;;;;;;;1999.90;999.90;;;14.30;62.30;;;;;;4974466;28;20037;-81
2022/02/25 10:50:05;;;;;;;1999.90;999.90;;;14.40;62.00;;;;;;4975392;28;20051;-83
2022/02/25 10:52:36;;;;;;;1999.90;999.90;;;14.40;61.90;;;;;;4968124;28;20043;-83
2022/02/25 10:55:04;;;;;;;1999.90;999.90;;;14.70;61.80;;;;;;4967705;28;20047;-89
2022/02/25 10:57:34;;;;;;;1999.90;999.90;;;14.70;61.30;;;;;;4974657;28;20043;-84
2022/02/25 11:00:01;;;;;;;1999.90;999.90;;;14.60;61.40;;;;;;4975348;28;20046;-85
2022/02/25 11:02:28;;;;;;;1999.90;999.90;;;14.50;61.60;;;;;;4976067;28;20042;-88
2022/02/25 11:05:05;;;;;;;1999.90;999.90;;;14.50;61.60;;;;;;4994713;28;20034;-86
2022/02/25 11:07:31;;;;;;;1999.90;999.90;;;14.40;61.60;;;;;;4992464;28;20027;-86
2022/02/25 11:09:57;;;;;;;1999.90;999.90;;;14.40;61.60;;;;;;4985819;28;20043;-89
2022/02/25 11:12:28;;;;;;;1999.90;999.90;;;14.40;61.60;;;;;;4991575;28;20043;-88
2022/02/25 11:14:54;;;;;;;1999.90;999.90;;;14.40;60.80;;;;;;4976854;28;20393;-88
2022/02/25 11:17:21;;;;;;;1999.90;999.90;;;14.30;61.10;;;;;;4993676;28;20031;-86
2022/02/25 11:19:48;;;;;;;1999.90;999.90;;;14.30;61.10;;;;;;4988023;28;20045;-84
2022/02/25 11:22:15;;;;;;;1999.90;999.90;;;14.30;61.10;;;;;;5012237;28;20375;-88
2022/02/25 11:24:41;;;;;;;1999.90;999.90;;;14.50;61.00;;;;;;5016959;28;20041;-88
2022/02/25 11:27:07;;;;;;;1999.90;999.90;;;14.70;60.60;;;;;;5029798;28;20049;-86
2022/02/25 11:29:38;;;;;;;1999.90;999.90;;;14.90;60.40;;;;;;5014638;28;20022;-89
2022/02/25 11:32:05;;;;;;;1999.90;999.90;;;15.10;60.10;;;;;;5009051;28;20046;-87
2022/02/25 11:34:31;;;;;;;1999.90;999.90;;;15.30;59.70;;;;;;5007127;28;20463;-88
2022/02/25 11:36:57;;;;;;;1999.90;999.90;;;15.20;59.50;;;;;;4991544;28;20050;-88
2022/02/25 11:39:25;;;;;;;1999.90;999.90;;;15.10;59.60;;;;;;4975775;28;20046;-89
2022/02/25 11:41:53;;;;;;;1999.90;999.90;;;15.10;59.60;;;;;;5020198;28;20034;-87
2022/02/25 11:44:19;;;;;;;1999.90;999.90;;;15.10;59.70;;;;;;4994986;28;20046;-82
2022/02/25 11:46:46;;;;;;;1999.90;999.90;;;15.20;59.70;;;;;;4990724;28;20041;-87
2022/02/25 11:49:12;;;;;;;1999.90;999.90;;;15.30;59.40;;;;;;4996403;28;20368;-83
2022/02/25 11:51:42;;;;;;;1999.90;999.90;;;15.40;59.40;;;;;;4992042;28;20030;-81
2022/02/25 11:54:31;;;;;;;1999.90;999.90;;;15.50;59.40;;;;;;4990825;28;20034;-90
2022/02/25 11:56:58;;;;;;;1999.90;999.90;;;15.40;59.20;;;;;;4992743;28;20030;-84
2022/02/25 11:59:25;;;;;;;1999.90;999.90;;;15.20;59.10;;;;;;4992216;28;20018;-82
2022/02/25 12:02:25;;;;;;;1999.90;999.90;;;15.00;59.50;;;;;;5023162;28;20038;-83
2022/02/25 12:04:54;;;;;;;1999.90;999.90;;;15.00;59.50;;;;;;5021140;28;20053;-83
2022/02/25 12:07:37;;;;;;;1999.90;999.90;;;15.00;59.20;;;;;;4985498;28;20037;-83
2022/02/25 12:10:14;;;;;;;1999.90;999.90;;;14.80;59.30;;;;;;4989948;28;20030;-85
2022/02/25 12:13:06;;;;;;;1999.90;999.90;;;14.80;59.40;;;;;;4990967;28;20050;-85
2022/02/25 12:15:34;;;;;;;1999.90;999.90;;;14.80;59.10;;;;;;4990490;28;20038;-84
2022/02/25 12:18:02;;;;;;;1999.90;999.90;;;14.80;58.80;;;;;;5020691;28;20023;-83
2022/02/25 12:20:37;;;;;;;1999.90;999.90;;;14.90;58.80;;;;;;4992654;28;20042;-83
2022/02/25 12:23:21;;;;;;;1999.90;999.90;;;14.90;58.70;;;;;;4991705;28;20519;-83
2022/02/25 12:25:59;;;;;;;1999.90;999.90;;;15.10;58.60;;;;;;5016698;28;20479;-83
2022/02/25 12:28:34;;;;;;;1999.90;999.90;;;15.30;58.30;;;;;;4976198;28;20042;-84
2022/02/25 12:31:04;;;;;;;1999.90;999.90;;;15.50;57.90;;;;;;4976127;28;20031;-85